createdAt,value
2019-05-14T00:00:21.684Z,50.37
2019-05-14T00:02:52.088Z,50.83
2019-05-14T00:05:21.678Z,51.31
2019-05-14T00:07:52.286Z,51.18
2019-05-14T00:10:21.892Z,51.02
2019-05-14T00:12:52.368Z,50.35
2019-05-14T00:15:22.985Z,50.70
2019-05-14T00:17:52.454Z,51.95
2019-05-14T00:20:22.969Z,52.61
2019-05-14T00:22:53.302Z,52.95
2019-05-14T00:25:22.878Z,54.73
2019-05-14T00:27:53.564Z,56.05
2019-05-14T00:30:23.950Z,55.89
2019-05-14T00:32:54.345Z,56.44
2019-05-14T00:35:23.732Z,56.07
2019-05-14T00:37:55.346Z,55.70
2019-05-14T00:40:24.681Z,56.26
2019-05-14T00:42:56.506Z,56.07
2019-05-14T00:45:26.918Z,56.56
2019-05-14T00:47:56.316Z,55.89
2019-05-14T00:50:27.095Z,55.67
2019-05-14T00:52:56.600Z,54.78
2019-05-14T00:55:27.083Z,55.20
2019-05-14T00:57:59.247Z,55.74
2019-05-14T01:00:31.348Z,55.29
2019-05-14T01:03:02.572Z,55.54
2019-05-14T01:05:32.330Z,55.50
2019-05-14T01:08:02.979Z,55.16
2019-05-14T01:10:34.097Z,54.13
2019-05-14T01:13:04.500Z,53.56
2019-05-14T01:15:36.889Z,55.12
2019-05-14T01:18:06.295Z,54.50
2019-05-14T01:20:36.764Z,55.07
2019-05-14T01:23:06.167Z,53.49
2019-05-14T01:25:36.528Z,53.39
2019-05-14T01:28:08.749Z,53.43
2019-05-14T01:30:38.238Z,53.47
2019-05-14T01:33:08.688Z,53.55
2019-05-14T01:35:38.055Z,54.18
2019-05-14T01:38:08.455Z,54.79
2019-05-14T01:40:41.985Z,54.61
2019-05-14T01:43:15.215Z,54.63
2019-05-14T01:45:46.876Z,54.72
2019-05-14T01:48:18.611Z,54.79
2019-05-14T01:50:49.159Z,55.88
2019-05-14T01:53:21.854Z,56.87
2019-05-14T01:55:52.056Z,56.75
2019-05-14T01:58:22.163Z,56.27
2019-05-14T02:00:52.648Z,56.84
2019-05-14T02:03:22.165Z,57.28
2019-05-14T02:05:54.609Z,57.23
2019-05-14T02:08:23.344Z,56.68
2019-05-14T02:10:53.760Z,55.92
2019-05-14T02:13:23.116Z,56.00
2019-05-14T02:15:54.663Z,55.87
2019-05-14T02:18:25.297Z,56.50
2019-05-14T02:20:57.563Z,57.66
2019-05-14T02:23:27.091Z,55.79
2019-05-14T02:25:59.639Z,55.17
2019-05-14T02:28:31.651Z,55.29
2019-05-14T02:31:03.864Z,54.84
2019-05-14T02:33:33.186Z,54.83
2019-05-14T02:36:03.550Z,54.96
2019-05-14T02:38:34.440Z,55.18
2019-05-14T02:41:02.935Z,55.14
2019-05-14T02:43:31.413Z,56.29
2019-05-14T02:46:10.775Z,55.63
2019-05-14T02:48:31.610Z,55.86
2019-05-14T02:51:02.000Z,55.40
2019-05-14T02:53:31.424Z,55.32
2019-05-14T02:56:02.304Z,55.59
2019-05-14T02:58:34.178Z,56.69
2019-05-14T03:01:04.696Z,56.33
2019-05-14T03:03:35.191Z,58.07
2019-05-14T03:06:05.529Z,56.80
2019-05-14T03:08:38.843Z,56.38
2019-05-14T03:11:10.114Z,56.40
2019-05-14T03:13:43.933Z,56.50
2019-05-14T03:16:26.036Z,56.60
2019-05-14T03:18:49.906Z,55.73
2019-05-14T03:21:19.888Z,55.51
2019-05-14T03:23:49.633Z,55.54
2019-05-14T03:26:22.330Z,55.36
2019-05-14T03:28:52.929Z,54.14
2019-05-14T03:31:25.266Z,54.90
2019-05-14T03:33:55.625Z,55.96
2019-05-14T03:36:34.254Z,56.54
2019-05-14T03:39:00.296Z,56.16
2019-05-14T03:41:30.904Z,55.85
2019-05-14T03:44:01.428Z,55.72
2019-05-14T03:46:44.284Z,54.34
2019-05-14T03:49:01.626Z,53.69
2019-05-14T03:51:31.111Z,53.51
2019-05-14T03:54:06.493Z,52.91
2019-05-14T03:56:31.985Z,52.49
2019-05-14T03:59:03.124Z,53.66
2019-05-14T04:01:32.905Z,52.56
2019-05-14T04:04:03.640Z,53.68
2019-05-14T04:06:34.065Z,51.69
2019-05-14T04:09:04.928Z,48.69
2019-05-14T04:11:35.676Z,44.74
2019-05-14T04:14:05.408Z,43.44
2019-05-14T04:16:39.829Z,44.73
2019-05-14T04:19:13.784Z,45.47
2019-05-14T04:21:45.440Z,46.04
2019-05-14T04:24:19.839Z,46.32
2019-05-14T04:27:02.398Z,46.58
2019-05-14T04:29:25.640Z,46.44
2019-05-14T04:32:00.108Z,46.34
2019-05-14T04:34:30.406Z,47.27
2019-05-14T04:37:00.347Z,47.47
2019-05-14T04:39:30.868Z,48.18
2019-05-14T04:42:00.512Z,40.86
2019-05-14T04:44:32.720Z,32.03
2019-05-14T04:47:21.758Z,27.97
2019-05-14T04:49:33.452Z,26.40
2019-05-14T04:52:02.892Z,24.86
2019-05-14T04:54:34.478Z,23.89
2019-05-14T04:57:03.766Z,28.67
2019-05-14T04:59:34.161Z,32.28
2019-05-14T05:02:09.505Z,37.45
2019-05-14T05:04:41.154Z,41.12
2019-05-14T05:07:10.152Z,42.59
2019-05-14T05:09:40.206Z,40.52
2019-05-14T05:12:09.904Z,27.56
2019-05-14T05:14:40.253Z,22.47
2019-05-14T05:17:10.893Z,20.11
2019-05-14T05:19:45.172Z,17.68
2019-05-14T05:22:12.310Z,16.70
2019-05-14T05:24:41.662Z,16.19
2019-05-14T05:27:10.982Z,16.16
2019-05-14T05:29:41.535Z,16.65
2019-05-14T05:32:10.953Z,16.11
2019-05-14T05:34:42.570Z,15.44
2019-05-14T05:37:13.223Z,14.14
2019-05-14T05:39:44.931Z,13.25
2019-05-14T05:42:15.568Z,13.01
2019-05-14T05:44:48.180Z,13.71
2019-05-14T05:47:18.501Z,17.38
2019-05-14T05:49:48.767Z,16.16
2019-05-14T05:52:19.133Z,20.50
2019-05-14T05:54:49.671Z,19.87
2019-05-14T05:57:21.714Z,25.49
2019-05-14T05:59:54.863Z,28.58
2019-05-14T06:02:24.489Z,30.24
2019-05-14T06:04:54.634Z,30.73
2019-05-14T06:07:24.142Z,26.72
2019-05-14T06:09:55.984Z,23.60
2019-05-14T06:12:26.585Z,26.72
2019-05-14T06:14:57.949Z,21.93
2019-05-14T06:17:28.505Z,19.38
2019-05-14T06:19:59.104Z,23.39
2019-05-14T06:22:28.765Z,26.25
2019-05-14T06:24:59.185Z,25.53
2019-05-14T06:27:28.923Z,16.49
2019-05-14T06:29:59.347Z,12.50
2019-05-14T06:32:29.817Z,16.17
2019-05-14T06:35:00.232Z,20.42
2019-05-14T06:37:30.137Z,22.15
2019-05-14T06:40:00.835Z,13.95
2019-05-14T06:42:33.044Z,10.74
2019-05-14T06:45:02.499Z,10.19
2019-05-14T06:47:31.880Z,10.06
2019-05-14T06:50:01.246Z,10.48
2019-05-14T06:52:30.674Z,15.30
2019-05-14T06:55:01.293Z,19.07
2019-05-14T06:57:31.588Z,21.76
2019-05-14T07:00:00.953Z,19.57
2019-05-14T07:02:31.449Z,15.46
2019-05-14T07:05:00.831Z,12.70
2019-05-14T07:07:30.408Z,16.33
2019-05-14T07:10:00.993Z,21.52
2019-05-14T07:12:31.397Z,23.05
2019-05-14T07:15:02.954Z,25.31
2019-05-14T07:17:33.463Z,23.10
2019-05-14T07:20:02.930Z,23.74
2019-05-14T07:22:33.336Z,26.38
2019-05-14T07:25:02.708Z,27.03
2019-05-14T07:27:36.016Z,28.71
2019-05-14T07:30:09.028Z,29.42
2019-05-14T07:32:41.644Z,27.09
2019-05-14T07:35:12.380Z,27.77
2019-05-14T07:37:42.770Z,30.79
2019-05-14T07:40:14.642Z,31.23
2019-05-14T07:42:43.145Z,31.07
2019-05-14T07:45:12.417Z,30.71
2019-05-14T07:47:40.923Z,31.12
2019-05-14T07:50:13.017Z,28.07
2019-05-14T07:52:45.385Z,12.60
2019-05-14T07:55:18.489Z,16.68
2019-05-14T07:57:50.302Z,10.67
2019-05-14T08:00:21.642Z,9.45
2019-05-14T08:02:52.040Z,7.88
2019-05-14T08:05:22.457Z,7.49
2019-05-14T08:07:54.373Z,6.91
2019-05-14T08:10:24.825Z,7.63
2019-05-14T08:12:58.945Z,7.30
2019-05-14T08:15:28.474Z,8.96
2019-05-14T08:17:58.526Z,6.34
2019-05-14T08:20:30.002Z,7.53
2019-05-14T08:22:59.582Z,6.36
2019-05-14T08:25:30.079Z,9.97
2019-05-14T08:28:00.503Z,7.32
2019-05-14T08:30:30.907Z,6.53
2019-05-14T08:33:00.261Z,6.25
2019-05-14T08:35:34.206Z,6.65
2019-05-14T08:38:07.663Z,5.82
2019-05-14T08:40:33.061Z,9.49
2019-05-14T08:43:02.507Z,12.41
2019-05-14T08:45:32.799Z,15.82
2019-05-14T08:48:03.413Z,9.82
2019-05-14T08:50:34.072Z,9.51
2019-05-14T08:53:03.494Z,15.30
2019-05-14T08:55:32.905Z,11.80
2019-05-14T08:58:02.580Z,9.31
2019-05-14T09:00:32.935Z,8.32
2019-05-14T09:03:03.291Z,7.29
2019-05-14T09:05:33.755Z,7.15
2019-05-14T09:08:04.162Z,5.77
2019-05-14T09:10:32.990Z,6.13
2019-05-14T09:13:02.961Z,8.61
2019-05-14T09:15:32.550Z,14.54
2019-05-14T09:18:03.944Z,18.57
2019-05-14T09:20:34.823Z,15.34
2019-05-14T09:23:05.236Z,11.18
2019-05-14T09:25:45.530Z,9.09
2019-05-14T09:28:09.038Z,9.21
2019-05-14T09:30:38.542Z,16.62
2019-05-14T09:33:10.298Z,21.59
2019-05-14T09:35:40.703Z,20.91
2019-05-14T09:38:12.278Z,19.99
2019-05-14T09:40:42.664Z,23.15
2019-05-14T09:43:18.071Z,23.04
2019-05-14T09:45:48.697Z,23.87
2019-05-14T09:48:19.228Z,26.10
2019-05-14T09:50:51.398Z,27.68
2019-05-14T09:53:20.790Z,27.50
2019-05-14T09:55:51.267Z,21.80
2019-05-14T09:58:20.682Z,18.99
2019-05-14T10:00:51.236Z,18.60
2019-05-14T10:03:20.605Z,19.80
2019-05-14T10:05:50.959Z,18.37
2019-05-14T10:08:21.405Z,19.43
2019-05-14T10:10:51.815Z,20.67
2019-05-14T10:13:22.217Z,20.70
2019-05-14T10:15:51.721Z,21.67
2019-05-14T10:18:21.833Z,24.38
2019-05-14T10:20:54.583Z,25.84
2019-05-14T10:23:23.986Z,26.32
2019-05-14T10:25:53.662Z,25.01
2019-05-14T10:28:24.041Z,24.70
2019-05-14T10:30:54.541Z,22.32
2019-05-14T10:33:25.146Z,25.09
2019-05-14T10:35:54.654Z,23.36
2019-05-14T10:38:24.021Z,22.51
2019-05-14T10:40:53.448Z,23.06
2019-05-14T10:43:23.844Z,25.06
2019-05-14T10:45:53.321Z,25.63
2019-05-14T10:48:25.291Z,24.57
2019-05-14T10:51:03.199Z,24.95
2019-05-14T10:53:29.447Z,24.40
2019-05-14T10:55:59.965Z,22.09
2019-05-14T10:58:29.427Z,21.41
2019-05-14T11:01:00.599Z,21.95
2019-05-14T11:03:31.181Z,21.41
2019-05-14T11:06:00.460Z,21.05
2019-05-14T11:08:30.406Z,21.44
2019-05-14T11:11:03.573Z,22.10
2019-05-14T11:13:31.054Z,24.43
2019-05-14T11:16:00.506Z,21.72
2019-05-14T11:18:30.930Z,22.77
2019-05-14T11:21:18.752Z,21.21
2019-05-14T11:23:33.468Z,19.53
2019-05-14T11:26:02.875Z,19.88
2019-05-14T11:28:32.305Z,19.70
2019-05-14T11:31:02.610Z,19.41
2019-05-14T11:33:32.943Z,19.70
2019-05-14T11:36:02.267Z,21.70
2019-05-14T11:38:37.155Z,22.43
2019-05-14T11:41:04.977Z,21.96
2019-05-14T11:43:34.455Z,21.95
2019-05-14T11:46:05.029Z,21.52
2019-05-14T11:48:34.453Z,20.84
2019-05-14T11:51:05.031Z,20.06
2019-05-14T11:53:34.414Z,20.36
2019-05-14T11:56:04.873Z,19.41
2019-05-14T11:58:36.651Z,21.01
2019-05-14T12:01:06.118Z,22.71
2019-05-14T12:03:39.090Z,24.73
2019-05-14T12:06:09.810Z,24.59
2019-05-14T12:08:41.765Z,24.94
2019-05-14T12:11:10.025Z,23.48
2019-05-14T12:13:40.848Z,21.82
2019-05-14T12:16:13.343Z,21.22
2019-05-14T12:18:44.326Z,20.36
2019-05-14T12:21:15.316Z,20.84
2019-05-14T12:23:45.706Z,21.74
2019-05-14T12:26:19.084Z,22.26
2019-05-14T12:28:50.537Z,23.32
2019-05-14T12:31:22.795Z,24.06
2019-05-14T12:33:58.215Z,24.44
2019-05-14T12:36:29.236Z,24.29
2019-05-14T12:38:59.942Z,24.58
2019-05-14T12:41:30.932Z,24.38
2019-05-14T12:44:00.392Z,23.32
2019-05-14T12:46:30.795Z,24.19
2019-05-14T12:49:00.221Z,25.02
2019-05-14T12:51:31.985Z,24.89
2019-05-14T12:54:09.243Z,25.16
2019-05-14T12:56:39.052Z,24.79
2019-05-14T12:59:09.978Z,24.10
2019-05-14T13:01:41.712Z,25.05
2019-05-14T13:04:11.118Z,23.74
2019-05-14T13:06:41.616Z,24.04
2019-05-14T13:09:12.119Z,23.73
2019-05-14T13:11:41.782Z,23.70
2019-05-14T13:14:12.199Z,23.33
2019-05-14T13:16:41.609Z,23.05
2019-05-14T13:19:11.926Z,24.78
2019-05-14T13:21:42.281Z,25.40
2019-05-14T13:24:12.777Z,23.17
2019-05-14T13:26:43.191Z,23.11
2019-05-14T13:29:12.600Z,23.45
2019-05-14T13:31:43.091Z,22.71
2019-05-14T13:34:12.571Z,26.65
2019-05-14T13:36:44.846Z,26.73
2019-05-14T13:39:13.645Z,31.03
2019-05-14T13:41:44.050Z,30.33
2019-05-14T13:44:21.171Z,27.71
2019-05-14T13:46:48.669Z,26.37
2019-05-14T13:49:19.058Z,25.67
2019-05-14T13:51:49.746Z,24.88
2019-05-14T13:54:21.626Z,20.64
2019-05-14T13:56:52.033Z,23.64
2019-05-14T13:59:23.991Z,22.19
2019-05-14T14:01:54.911Z,26.48
2019-05-14T14:04:24.635Z,28.51
2019-05-14T14:06:54.162Z,32.38
2019-05-14T14:09:24.359Z,36.20
2019-05-14T14:11:54.051Z,36.71
2019-05-14T14:14:24.447Z,36.22
2019-05-14T14:16:54.844Z,35.64
2019-05-14T14:19:24.148Z,35.95
2019-05-14T14:21:54.575Z,36.70
2019-05-14T14:24:24.201Z,36.62
2019-05-14T14:26:54.588Z,34.56
2019-05-14T14:29:23.964Z,34.60
2019-05-14T14:31:52.466Z,33.26
2019-05-14T14:34:21.904Z,32.39
2019-05-14T14:36:54.936Z,30.63
2019-05-14T14:39:22.752Z,28.63
2019-05-14T14:41:54.768Z,27.25
2019-05-14T14:44:29.117Z,27.65
2019-05-14T14:46:59.617Z,26.76
2019-05-14T14:49:30.021Z,25.59
2019-05-14T14:52:00.512Z,27.36
2019-05-14T14:54:31.501Z,28.96
2019-05-14T14:57:03.632Z,32.25
2019-05-14T14:59:33.006Z,34.06
2019-05-14T15:02:03.827Z,34.58
2019-05-14T15:04:34.871Z,34.87
2019-05-14T15:07:03.375Z,35.10
2019-05-14T15:09:34.098Z,35.02
2019-05-14T15:12:04.603Z,39.99
2019-05-14T15:14:33.970Z,36.74
2019-05-14T15:17:03.368Z,34.40
2019-05-14T15:19:33.939Z,33.80
2019-05-14T15:22:03.402Z,33.43
2019-05-14T15:24:33.973Z,34.00
2019-05-14T15:27:08.788Z,35.22
2019-05-14T15:29:39.025Z,36.18
2019-05-14T15:32:09.950Z,35.34
2019-05-14T15:34:39.353Z,35.54
2019-05-14T15:37:11.687Z,36.69
2019-05-14T15:39:42.102Z,36.91
2019-05-14T15:42:13.997Z,37.08
2019-05-14T15:44:51.979Z,36.50
2019-05-14T15:47:18.957Z,34.86
2019-05-14T15:49:49.035Z,34.98
2019-05-14T15:52:19.408Z,35.17
2019-05-14T15:54:50.642Z,35.73
2019-05-14T15:57:20.528Z,34.98
2019-05-14T15:59:53.904Z,35.37
2019-05-14T16:02:24.414Z,35.73
2019-05-14T16:04:55.757Z,36.25
2019-05-14T16:07:26.127Z,35.37
2019-05-14T16:09:56.567Z,35.80
2019-05-14T16:12:32.359Z,36.27
2019-05-14T16:15:01.353Z,36.00
2019-05-14T16:17:45.371Z,35.28
2019-05-14T16:20:09.342Z,33.28
2019-05-14T16:22:39.838Z,33.07
2019-05-14T16:25:13.553Z,33.79
2019-05-14T16:27:44.350Z,34.13
2019-05-14T16:30:14.959Z,35.06
2019-05-14T16:32:44.422Z,35.06
2019-05-14T16:35:15.152Z,38.76
2019-05-14T16:37:48.469Z,51.29
2019-05-14T16:40:19.262Z,51.37
2019-05-14T16:42:48.879Z,55.67
2019-05-14T16:45:18.696Z,57.94
2019-05-14T16:47:51.141Z,56.02
2019-05-14T16:50:23.884Z,56.93
2019-05-14T16:52:55.815Z,52.78
2019-05-14T16:55:30.423Z,53.09
2019-05-14T16:58:01.325Z,52.76
2019-05-14T17:00:34.678Z,53.56
2019-05-14T17:03:08.340Z,50.39
2019-05-14T17:05:39.374Z,49.11
2019-05-14T17:08:10.043Z,46.91
2019-05-14T17:10:42.026Z,48.76
2019-05-14T17:13:12.851Z,47.60
2019-05-14T17:15:50.457Z,46.25
2019-05-14T17:18:21.138Z,45.96
2019-05-14T17:20:50.480Z,45.09
2019-05-14T17:23:22.897Z,46.85
2019-05-14T17:25:53.968Z,49.44
2019-05-14T17:28:24.473Z,56.23
2019-05-14T17:30:55.258Z,59.14
